createdAt,value
2023-03-15T13:18:34.358Z,2.03
2023-03-15T13:21:02.088Z,1.20
2023-03-15T13:23:31.842Z,1.40
2023-03-15T13:26:17.546Z,1.75
2023-03-15T13:28:52.236Z,1.87
2023-03-15T13:31:19.765Z,2.80
2023-03-15T13:33:49.165Z,1.90
2023-03-15T13:36:23.609Z,2.30
2023-03-15T13:38:53.456Z,1.75
2023-03-15T13:41:26.089Z,1.90
2023-03-15T13:43:56.682Z,1.90
2023-03-15T13:46:26.819Z,1.70
2023-03-15T13:48:55.218Z,1.80
2023-03-15T13:51:35.899Z,1.80
2023-03-15T13:54:07.482Z,1.73
2023-03-15T13:56:48.759Z,1.50
2023-03-15T13:59:17.703Z,1.23
2023-03-15T14:01:45.371Z,1.73
2023-03-15T14:04:16.438Z,1.70
2023-03-15T14:06:46.902Z,1.60
2023-03-15T14:09:23.265Z,1.83
2023-03-15T14:12:02.513Z,2.25
2023-03-15T14:14:31.400Z,1.83
2023-03-15T14:17:05.896Z,2.00
2023-03-15T14:19:35.251Z,1.95
2023-03-15T14:22:12.692Z,2.40
2023-03-15T14:24:42.579Z,1.77
2023-03-15T14:27:36.692Z,2.10
2023-03-15T14:30:04.713Z,2.10
2023-03-15T14:32:34.760Z,1.87
2023-03-15T14:35:03.998Z,2.03
2023-03-15T14:37:38.090Z,2.03
2023-03-15T14:40:30.617Z,3.03
2023-03-15T14:42:58.444Z,1.90
2023-03-15T14:45:27.484Z,2.08
2023-03-15T14:47:58.728Z,1.75
2023-03-15T14:50:28.925Z,1.98
2023-03-15T14:52:57.307Z,2.50
2023-03-15T14:55:29.486Z,1.95
2023-03-15T14:57:57.205Z,1.98
2023-03-15T15:00:25.115Z,2.30
2023-03-15T15:02:56.252Z,2.20
2023-03-15T15:05:32.394Z,2.10
2023-03-15T15:08:06.269Z,2.20
2023-03-15T15:10:34.858Z,2.00
2023-03-15T15:13:06.666Z,1.70
2023-03-15T15:15:51.187Z,2.28
2023-03-15T15:18:25.987Z,1.83
2023-03-15T15:20:58.594Z,1.98
2023-03-15T15:23:29.537Z,2.20
2023-03-15T15:26:05.245Z,2.10
2023-03-15T15:28:36.849Z,2.25
2023-03-15T15:31:07.134Z,2.10
2023-03-15T15:33:35.255Z,1.92
2023-03-15T15:36:04.433Z,2.20
2023-03-15T15:38:38.952Z,1.52
2023-03-15T15:41:13.431Z,1.90
2023-03-15T15:43:46.472Z,1.83
2023-03-15T15:46:14.849Z,2.12
2023-03-15T15:48:45.565Z,2.30
2023-03-15T15:51:29.601Z,1.87
2023-03-15T15:53:59.523Z,2.25
2023-03-15T15:56:31.492Z,2.22
2023-03-15T15:59:01.043Z,2.20
2023-03-15T16:01:28.950Z,2.78
2023-03-15T16:03:57.432Z,2.00
2023-03-15T16:06:25.147Z,2.40
2023-03-15T16:08:53.682Z,2.55
2023-03-15T16:11:21.575Z,2.17
2023-03-15T16:13:55.900Z,2.03
2023-03-15T16:16:23.827Z,2.10
2023-03-15T16:18:51.281Z,1.92
2023-03-15T16:21:28.921Z,2.20
2023-03-15T16:24:22.403Z,2.33
2023-03-15T16:26:51.239Z,2.28
2023-03-15T16:29:22.654Z,1.55
2023-03-15T16:31:51.395Z,1.87
2023-03-15T16:34:24.670Z,2.10
2023-03-15T16:36:56.146Z,1.95
2023-03-15T16:39:24.622Z,2.28
2023-03-15T16:41:56.962Z,2.30
2023-03-15T16:44:32.692Z,2.30
2023-03-15T16:47:00.724Z,2.45
2023-03-15T16:49:30.584Z,3.80
2023-03-15T16:51:59.230Z,2.90
2023-03-15T16:54:40.572Z,3.60
2023-03-15T16:57:22.330Z,8.50
2023-03-15T16:59:51.754Z,5.18
2023-03-15T17:02:23.395Z,9.15
2023-03-15T17:04:53.273Z,4.85
2023-03-15T17:07:28.758Z,3.40
2023-03-15T17:09:59.540Z,4.55
2023-03-15T17:12:31.364Z,3.50
2023-03-15T17:15:04.014Z,6.07
2023-03-15T17:17:34.401Z,3.55
2023-03-15T17:20:07.105Z,6.80
2023-03-15T17:22:42.425Z,3.12
2023-03-15T17:25:11.791Z,2.70
2023-03-15T17:27:42.017Z,3.00
2023-03-15T17:30:22.742Z,2.53
2023-03-15T17:32:53.147Z,3.20
2023-03-15T17:35:24.112Z,3.08
2023-03-15T17:37:53.630Z,2.85
2023-03-15T17:40:25.596Z,4.72
2023-03-15T17:42:56.242Z,4.15
2023-03-15T17:45:33.543Z,4.77
2023-03-15T17:48:03.248Z,2.85
2023-03-15T17:50:33.997Z,3.45
2023-03-15T17:53:20.935Z,4.05
2023-03-15T17:55:49.854Z,5.45
2023-03-15T17:58:21.909Z,8.00
2023-03-15T18:00:51.952Z,3.67
2023-03-15T18:03:21.298Z,4.47
2023-03-15T18:05:50.623Z,2.75
2023-03-15T18:08:21.997Z,2.30
2023-03-15T18:10:52.072Z,3.83
2023-03-15T18:13:24.675Z,2.40
2023-03-15T18:15:54.018Z,2.05
2023-03-15T18:18:23.844Z,2.25
2023-03-15T18:20:52.361Z,2.50
2023-03-15T18:23:20.971Z,2.20
2023-03-15T18:25:49.770Z,2.47
2023-03-15T18:28:18.692Z,2.40
2023-03-15T18:30:49.124Z,2.87
2023-03-15T18:33:19.527Z,2.37
2023-03-15T18:35:49.677Z,2.30
2023-03-15T18:38:21.298Z,2.10
2023-03-15T18:40:52.181Z,2.42
2023-03-15T18:43:21.904Z,2.00
2023-03-15T18:45:51.759Z,2.30
2023-03-15T18:48:27.824Z,2.95
2023-03-15T18:51:03.536Z,2.28
2023-03-15T18:53:32.995Z,2.73
2023-03-15T18:56:05.045Z,2.70
2023-03-15T18:58:34.140Z,3.60
2023-03-15T19:01:03.109Z,2.20
2023-03-15T19:03:32.196Z,3.33
2023-03-15T19:06:09.402Z,2.22
2023-03-15T19:08:39.349Z,2.60
2023-03-15T19:11:08.621Z,2.17
2023-03-15T19:13:38.686Z,2.35
2023-03-15T19:16:08.379Z,2.62
2023-03-15T19:18:36.762Z,2.55
2023-03-15T19:21:05.811Z,2.40
2023-03-15T19:23:35.340Z,2.65
2023-03-15T19:26:04.772Z,2.33
2023-03-15T19:28:33.612Z,2.10
2023-03-15T19:31:04.958Z,2.05
2023-03-15T19:33:35.691Z,2.00
2023-03-15T19:36:05.920Z,4.53
2023-03-15T19:38:36.900Z,1.92
2023-03-15T19:41:09.743Z,2.05
2023-03-15T19:43:43.007Z,2.25
2023-03-15T19:46:14.444Z,2.00
2023-03-15T19:48:47.851Z,2.50
2023-03-15T19:51:17.809Z,2.28
2023-03-15T19:53:48.146Z,2.33
2023-03-15T19:56:17.683Z,2.08
2023-03-15T19:58:46.846Z,2.40
2023-03-15T20:01:16.793Z,4.25
2023-03-15T20:03:46.526Z,3.10
2023-03-15T20:06:17.833Z,3.70
2023-03-15T20:08:47.286Z,3.35
2023-03-15T20:11:20.825Z,3.53
2023-03-15T20:13:50.868Z,3.33
2023-03-15T20:16:20.650Z,3.33
2023-03-15T20:18:55.313Z,3.50
2023-03-15T20:21:28.385Z,3.42
2023-03-15T20:24:01.921Z,2.95
2023-03-15T20:26:33.241Z,3.00
2023-03-15T20:29:02.671Z,3.30
2023-03-15T20:31:33.300Z,2.62
2023-03-15T20:34:03.883Z,3.15
2023-03-15T20:36:33.748Z,3.22
2023-03-15T20:39:06.416Z,2.97
2023-03-15T20:41:41.275Z,3.12
2023-03-15T20:44:10.641Z,3.12
2023-03-15T20:46:40.508Z,2.65
2023-03-15T20:49:09.670Z,3.17
2023-03-15T20:51:39.618Z,3.10
2023-03-15T20:54:10.091Z,3.15
2023-03-15T20:56:39.520Z,3.17
2023-03-15T20:59:08.543Z,3.03
2023-03-15T21:01:37.079Z,2.65
2023-03-15T21:04:12.272Z,3.12
2023-03-15T21:06:43.216Z,2.72
2023-03-15T21:09:13.167Z,2.80
2023-03-15T21:11:43.505Z,3.00
2023-03-15T21:14:13.238Z,2.90
2023-03-15T21:16:42.466Z,2.62
2023-03-15T21:19:12.450Z,2.60
2023-03-15T21:21:43.668Z,2.33
2023-03-15T21:24:12.461Z,2.58
2023-03-15T21:26:44.307Z,2.70
2023-03-15T21:29:13.019Z,2.08
2023-03-15T21:31:42.238Z,2.45
2023-03-15T21:34:10.603Z,2.30
2023-03-15T21:36:39.920Z,2.40
2023-03-15T21:39:08.828Z,2.40
2023-03-15T21:41:40.545Z,2.62
2023-03-15T21:44:09.343Z,2.30
2023-03-15T21:46:37.802Z,2.55
2023-03-15T21:49:05.845Z,2.40
2023-03-15T21:51:34.219Z,2.30
2023-03-15T21:54:02.160Z,2.47
2023-03-15T21:56:30.124Z,2.55
2023-03-15T21:58:58.403Z,2.70
2023-03-15T22:01:26.058Z,3.00
2023-03-15T22:03:53.828Z,2.08
2023-03-15T22:06:22.386Z,3.17
2023-03-15T22:08:50.460Z,4.25
2023-03-15T22:11:19.233Z,4.50
2023-03-15T22:13:46.636Z,4.50
2023-03-15T22:16:14.402Z,4.63
2023-03-15T22:18:42.153Z,4.40
2023-03-15T22:21:09.652Z,4.68
2023-03-15T22:23:37.109Z,4.93
2023-03-15T22:26:04.969Z,5.10
2023-03-15T22:28:33.183Z,4.70
2023-03-15T22:31:01.716Z,4.75
2023-03-15T22:33:29.628Z,4.35
2023-03-15T22:35:58.337Z,4.37
2023-03-15T22:38:26.310Z,4.70
2023-03-15T22:41:06.729Z,4.70
2023-03-15T22:43:35.183Z,4.05
2023-03-15T22:46:04.124Z,5.03
2023-03-15T22:48:31.623Z,4.55
2023-03-15T22:51:04.364Z,4.78
2023-03-15T22:53:32.277Z,4.43
2023-03-15T22:56:00.062Z,4.57
2023-03-15T22:58:29.581Z,4.18
2023-03-15T23:00:57.260Z,4.63
2023-03-15T23:03:25.250Z,4.82
2023-03-15T23:05:53.769Z,4.60
2023-03-15T23:08:22.810Z,4.97
2023-03-15T23:10:50.614Z,4.90
2023-03-15T23:13:18.354Z,5.10
2023-03-15T23:15:46.052Z,4.62
2023-03-15T23:18:14.720Z,5.10
2023-03-15T23:20:42.822Z,4.50
2023-03-15T23:23:10.497Z,5.22
2023-03-15T23:25:38.971Z,4.80
2023-03-15T23:28:06.882Z,4.17
2023-03-15T23:30:36.213Z,4.78
2023-03-15T23:33:04.707Z,4.37
2023-03-15T23:35:32.370Z,4.20
2023-03-15T23:38:00.096Z,4.70
2023-03-15T23:40:29.882Z,4.53
2023-03-15T23:43:00.516Z,3.95
2023-03-15T23:45:30.033Z,4.05
2023-03-15T23:47:57.978Z,4.10
2023-03-15T23:50:26.403Z,4.12
2023-03-15T23:52:56.341Z,4.37
2023-03-15T23:55:24.107Z,4.20
2023-03-15T23:57:51.892Z,4.57
